createdAt,value
2019-03-23T00:00:32.714Z,10.80
2019-03-23T00:01:32.732Z,10.86
2019-03-23T00:02:32.818Z,10.79
2019-03-23T00:03:32.737Z,10.83
2019-03-23T00:04:32.760Z,10.76
2019-03-23T00:05:32.740Z,10.80
2019-03-23T00:06:32.731Z,10.77
2019-03-23T00:07:32.749Z,10.69
2019-03-23T00:08:32.802Z,10.67
2019-03-23T00:09:32.794Z,10.71
2019-03-23T00:10:32.759Z,10.75
2019-03-23T00:11:32.794Z,10.67
2019-03-23T00:12:32.774Z,10.68
2019-03-23T00:13:32.830Z,10.68
2019-03-23T00:14:32.785Z,10.71
2019-03-23T00:15:32.779Z,10.72
2019-03-23T00:16:32.828Z,10.72
2019-03-23T00:17:32.847Z,10.75
2019-03-23T00:18:32.818Z,10.71
2019-03-23T00:19:32.817Z,10.71
2019-03-23T00:20:32.808Z,10.72
2019-03-23T00:21:32.816Z,10.75
2019-03-23T00:22:32.856Z,10.75
2019-03-23T00:23:32.842Z,10.67
2019-03-23T00:24:32.878Z,10.71
2019-03-23T00:25:32.840Z,10.72
2019-03-23T00:26:32.842Z,10.79
2019-03-23T00:27:32.851Z,10.75
2019-03-23T00:28:32.851Z,10.80
2019-03-23T00:29:32.847Z,10.67
2019-03-23T00:30:32.913Z,10.75
2019-03-23T00:31:32.857Z,10.76
2019-03-23T00:32:32.863Z,10.71
2019-03-23T00:33:32.878Z,10.75
2019-03-23T00:34:32.931Z,10.72
2019-03-23T00:35:32.889Z,10.77
2019-03-23T00:36:41.089Z,10.71
2019-03-23T00:37:32.916Z,10.69
2019-03-23T00:38:32.913Z,10.76
2019-03-23T00:39:32.916Z,10.79
2019-03-23T00:40:32.908Z,10.79
2019-03-23T00:41:32.940Z,10.67
2019-03-23T00:42:32.948Z,10.71
2019-03-23T00:43:32.934Z,10.76
2019-03-23T00:44:32.967Z,10.71
2019-03-23T00:45:32.972Z,10.77
2019-03-23T00:46:33.002Z,10.72
2019-03-23T00:47:32.958Z,10.67
2019-03-23T00:48:32.963Z,10.69
2019-03-23T00:49:32.973Z,10.76
2019-03-23T00:50:32.970Z,10.75
2019-03-23T00:51:32.954Z,10.77
2019-03-23T00:52:32.987Z,10.69
2019-03-23T00:53:32.973Z,10.69
2019-03-23T00:54:32.976Z,10.72
2019-03-23T00:55:32.989Z,10.75
2019-03-23T00:56:32.990Z,10.69
2019-03-23T00:57:33.039Z,10.72
2019-03-23T00:58:32.993Z,10.68
2019-03-23T00:59:32.999Z,10.75
2019-03-23T01:00:33.014Z,10.72
2019-03-23T01:01:33.032Z,10.62
2019-03-23T01:02:33.035Z,10.71
2019-03-23T01:03:33.042Z,10.68
2019-03-23T01:04:33.030Z,10.71
2019-03-23T01:05:33.034Z,10.65
2019-03-23T01:06:33.061Z,10.72
2019-03-23T01:07:33.038Z,10.67
2019-03-23T01:08:33.061Z,10.67
2019-03-23T01:09:33.107Z,10.75
2019-03-23T01:10:33.055Z,10.68
2019-03-23T01:11:33.092Z,10.62
2019-03-23T01:12:33.103Z,10.65
2019-03-23T01:13:33.183Z,10.62
2019-03-23T01:14:33.080Z,10.64
2019-03-23T01:15:33.070Z,10.67
2019-03-23T01:16:33.152Z,10.59
2019-03-23T01:17:33.116Z,10.64
2019-03-23T01:18:33.098Z,10.57
2019-03-23T01:19:33.098Z,10.57
2019-03-23T01:20:33.142Z,10.59
2019-03-23T01:21:33.117Z,10.58
2019-03-23T01:22:33.150Z,10.59
2019-03-23T01:23:33.141Z,10.57
2019-03-23T01:24:33.128Z,10.61
2019-03-23T01:25:33.155Z,10.62
2019-03-23T01:26:33.137Z,10.59
2019-03-23T01:27:33.154Z,10.58
2019-03-23T01:28:33.188Z,10.62
2019-03-23T01:29:33.576Z,10.61
2019-03-23T01:30:33.161Z,10.64
2019-03-23T01:31:33.181Z,10.53
2019-03-23T01:32:33.172Z,10.58
2019-03-23T01:33:33.177Z,10.46
2019-03-23T01:34:33.198Z,10.59
2019-03-23T01:35:33.226Z,10.48
2019-03-23T01:36:33.180Z,10.43
2019-03-23T01:37:33.197Z,10.46
2019-03-23T01:38:33.224Z,10.53
2019-03-23T01:39:33.189Z,10.57
2019-03-23T01:40:33.196Z,10.55
2019-03-23T01:41:33.250Z,10.46
2019-03-23T01:42:33.201Z,10.45
2019-03-23T01:43:33.235Z,10.45
2019-03-23T01:44:33.223Z,10.49
2019-03-23T01:45:33.343Z,10.41
2019-03-23T01:46:33.217Z,10.49
2019-03-23T01:47:33.235Z,10.53
2019-03-23T01:48:33.239Z,10.49
2019-03-23T01:49:33.248Z,10.45
2019-03-23T01:50:33.257Z,10.45
2019-03-23T01:51:33.290Z,10.48
2019-03-23T01:52:33.336Z,10.45
2019-03-23T01:53:33.271Z,10.41
2019-03-23T01:54:33.307Z,10.53
2019-03-23T01:55:33.286Z,10.42
2019-03-23T01:56:33.397Z,10.46
2019-03-23T01:57:33.274Z,10.39
2019-03-23T01:58:33.295Z,10.39
2019-03-23T01:59:33.282Z,10.39
2019-03-23T02:00:33.314Z,10.30
2019-03-23T02:01:33.329Z,10.28
2019-03-23T02:02:33.354Z,10.27
2019-03-23T02:03:33.331Z,10.28
2019-03-23T02:04:33.327Z,10.21
2019-03-23T02:05:33.322Z,10.31
2019-03-23T02:06:33.394Z,10.28
2019-03-23T02:07:33.341Z,10.28
2019-03-23T02:08:33.369Z,10.20
2019-03-23T02:09:33.358Z,10.30
2019-03-23T02:10:33.368Z,10.23
2019-03-23T02:11:33.372Z,10.27
2019-03-23T02:12:33.372Z,10.30
2019-03-23T02:13:33.393Z,10.27
2019-03-23T02:14:33.488Z,10.30
2019-03-23T02:15:33.369Z,10.21
2019-03-23T02:16:33.412Z,10.25
2019-03-23T02:17:33.389Z,10.31
2019-03-23T02:18:33.397Z,10.23
2019-03-23T02:19:33.415Z,10.21
2019-03-23T02:20:33.423Z,10.21
2019-03-23T02:21:33.396Z,10.27
2019-03-23T02:22:33.403Z,10.23
2019-03-23T02:23:33.443Z,10.27
2019-03-23T02:24:33.459Z,10.28
2019-03-23T02:25:33.437Z,10.34
2019-03-23T02:26:33.414Z,10.31
2019-03-23T02:27:33.479Z,10.33
2019-03-23T02:28:33.439Z,10.30
2019-03-23T02:29:33.448Z,10.36
2019-03-23T02:30:33.439Z,10.39
2019-03-23T02:31:33.463Z,10.39
2019-03-23T02:32:33.461Z,10.39
2019-03-23T02:33:33.472Z,10.36
2019-03-23T02:34:33.534Z,10.45
2019-03-23T02:35:33.479Z,10.48
2019-03-23T02:36:33.513Z,10.45
2019-03-23T02:37:33.491Z,10.42
2019-03-23T02:38:33.494Z,10.43
2019-03-23T02:39:33.487Z,10.49
2019-03-23T02:40:33.520Z,10.61
2019-03-23T02:41:33.531Z,10.53
2019-03-23T02:42:33.531Z,10.58
2019-03-23T02:43:33.515Z,10.61
2019-03-23T02:44:33.498Z,10.51
2019-03-23T02:45:33.568Z,10.62
2019-03-23T02:46:33.565Z,10.61
2019-03-23T02:47:33.554Z,10.68
2019-03-23T02:48:33.568Z,10.71
2019-03-23T02:49:33.532Z,10.71
2019-03-23T02:50:33.541Z,10.69
2019-03-23T02:51:33.604Z,10.67
2019-03-23T02:52:33.569Z,10.72
2019-03-23T02:53:33.556Z,10.71
2019-03-23T02:54:33.561Z,10.83
2019-03-23T02:55:33.571Z,10.75
2019-03-23T02:56:33.596Z,10.84
2019-03-23T02:57:33.574Z,10.82
2019-03-23T02:58:33.602Z,10.86
2019-03-23T02:59:33.598Z,10.84
2019-03-23T03:00:33.645Z,10.86
2019-03-23T03:01:33.629Z,10.80
2019-03-23T03:02:33.620Z,10.89
2019-03-23T03:03:33.595Z,10.84
2019-03-23T03:04:33.599Z,10.87
2019-03-23T03:05:33.730Z,10.87
2019-03-23T03:06:33.639Z,10.83
2019-03-23T03:07:41.963Z,10.95
2019-03-23T03:08:33.644Z,10.89
2019-03-23T03:09:33.655Z,10.92
2019-03-23T03:10:33.626Z,10.83
2019-03-23T03:11:33.726Z,10.86
2019-03-23T03:12:33.703Z,10.94
2019-03-23T03:13:33.694Z,10.97
2019-03-23T03:14:33.652Z,10.92
2019-03-23T03:15:33.655Z,11.00
2019-03-23T03:16:33.755Z,11.00
2019-03-23T03:17:33.677Z,10.97
2019-03-23T03:18:33.695Z,11.00
2019-03-23T03:19:33.692Z,11.10
2019-03-23T03:20:33.695Z,11.10
2019-03-23T03:21:33.704Z,10.98
2019-03-23T03:22:33.691Z,11.07
2019-03-23T03:23:33.753Z,11.00
2019-03-23T03:24:33.698Z,11.13
2019-03-23T03:25:33.731Z,11.04
2019-03-23T03:26:33.721Z,11.08
2019-03-23T03:27:33.720Z,11.10
2019-03-23T03:28:33.726Z,11.15
2019-03-23T03:29:33.760Z,11.10
2019-03-23T03:30:33.745Z,11.12
2019-03-23T03:31:33.755Z,11.12
2019-03-23T03:32:33.819Z,11.12
2019-03-23T03:33:33.764Z,11.10
2019-03-23T03:34:33.778Z,11.08
2019-03-23T03:35:33.776Z,11.12
2019-03-23T03:36:33.782Z,11.18
2019-03-23T03:37:33.775Z,11.12
2019-03-23T03:38:33.803Z,11.22
2019-03-23T03:39:33.772Z,11.19
2019-03-23T03:40:33.810Z,11.12
2019-03-23T03:41:33.833Z,11.20
2019-03-23T03:42:33.896Z,11.25
2019-03-23T03:43:33.827Z,11.23
2019-03-23T03:44:33.801Z,11.31
2019-03-23T03:45:33.850Z,11.23
2019-03-23T03:46:33.848Z,11.31
2019-03-23T03:47:33.845Z,11.35
2019-03-23T03:48:33.866Z,11.44
2019-03-23T03:49:33.859Z,11.40
2019-03-23T03:50:33.863Z,11.37
2019-03-23T03:51:33.847Z,11.37
2019-03-23T03:52:33.893Z,11.34
2019-03-23T03:53:33.900Z,11.35
2019-03-23T03:54:33.870Z,11.37
2019-03-23T03:55:33.916Z,11.37
2019-03-23T03:56:33.879Z,11.34
2019-03-23T03:57:33.889Z,11.40
2019-03-23T03:58:33.900Z,11.40
2019-03-23T03:59:33.940Z,11.33
2019-03-23T04:00:33.913Z,11.40
2019-03-23T04:01:33.906Z,11.44
2019-03-23T04:02:33.924Z,11.38
2019-03-23T04:03:33.915Z,11.37
2019-03-23T04:04:33.991Z,11.37
2019-03-23T04:05:33.928Z,11.41
2019-03-23T04:06:33.983Z,11.41
2019-03-23T04:07:33.937Z,11.41
2019-03-23T04:08:33.942Z,11.38
2019-03-23T04:09:33.969Z,11.41
2019-03-23T04:10:33.991Z,11.37
2019-03-23T04:11:33.977Z,11.40
2019-03-23T04:12:33.958Z,11.48
2019-03-23T04:13:33.964Z,11.40
2019-03-23T04:14:33.989Z,11.40
2019-03-23T04:15:34.001Z,11.53
2019-03-23T04:16:34.023Z,11.53
2019-03-23T04:17:34.033Z,11.51
2019-03-23T04:18:33.993Z,11.41
2019-03-23T04:19:34.143Z,11.52
2019-03-23T04:20:34.031Z,11.45
2019-03-23T04:21:34.041Z,11.51
2019-03-23T04:22:34.005Z,11.52
2019-03-23T04:23:34.010Z,11.48
2019-03-23T04:24:34.030Z,11.55
2019-03-23T04:25:34.075Z,11.52
2019-03-23T04:26:34.068Z,11.48
2019-03-23T04:27:34.039Z,11.58
2019-03-23T04:28:34.047Z,11.56
2019-03-23T04:29:34.042Z,11.55
2019-03-23T04:30:34.056Z,11.56
2019-03-23T04:31:34.148Z,11.48
2019-03-23T04:32:34.080Z,11.58
2019-03-23T04:33:34.115Z,11.52
2019-03-23T04:34:34.070Z,11.51
2019-03-23T04:35:34.097Z,11.60
2019-03-23T04:36:34.109Z,11.52
2019-03-23T04:37:34.094Z,11.55
2019-03-23T04:38:34.311Z,11.55
2019-03-23T04:39:34.132Z,11.52
2019-03-23T04:40:34.185Z,11.60
2019-03-23T04:41:34.132Z,11.58
2019-03-23T04:42:34.122Z,11.56
2019-03-23T04:43:34.189Z,11.56
2019-03-23T04:44:34.136Z,11.55
2019-03-23T04:45:34.138Z,11.58
2019-03-23T04:46:34.157Z,11.58
2019-03-23T04:47:34.152Z,11.59
2019-03-23T04:48:34.132Z,11.59
2019-03-23T04:49:34.142Z,11.53
2019-03-23T04:50:34.181Z,11.58
2019-03-23T04:51:34.191Z,11.62
2019-03-23T04:52:34.193Z,11.59
2019-03-23T04:53:34.177Z,11.53
2019-03-23T04:54:34.220Z,11.56
2019-03-23T04:55:34.181Z,11.59
2019-03-23T04:56:34.215Z,11.51
2019-03-23T04:57:34.562Z,11.52
2019-03-23T04:58:34.196Z,11.56
2019-03-23T04:59:34.473Z,11.59
2019-03-23T05:00:34.212Z,11.58
2019-03-23T05:01:34.220Z,11.59
2019-03-23T05:02:34.226Z,11.52
2019-03-23T05:03:34.288Z,11.52
2019-03-23T05:04:34.303Z,11.56
2019-03-23T05:05:34.250Z,11.58
2019-03-23T05:06:34.244Z,11.52
2019-03-23T05:07:34.344Z,11.59
2019-03-23T05:08:34.300Z,11.55
2019-03-23T05:09:34.263Z,11.59
2019-03-23T05:10:34.289Z,11.52
2019-03-23T05:11:34.278Z,11.59
2019-03-23T05:12:34.283Z,11.56
2019-03-23T05:13:34.395Z,11.58
2019-03-23T05:14:34.293Z,11.53
2019-03-23T05:15:34.340Z,11.56
2019-03-23T05:16:34.300Z,11.60
2019-03-23T05:17:34.310Z,11.55
2019-03-23T05:18:34.551Z,11.62
2019-03-23T05:19:34.319Z,11.63
2019-03-23T05:20:34.307Z,11.59
2019-03-23T05:21:34.309Z,11.58
2019-03-23T05:22:34.345Z,11.62
2019-03-23T05:23:34.367Z,11.55
2019-03-23T05:24:34.384Z,11.60
2019-03-23T05:25:34.331Z,11.55
2019-03-23T05:26:34.340Z,11.59
2019-03-23T05:27:34.347Z,11.58
2019-03-23T05:28:34.383Z,11.59
2019-03-23T05:29:34.388Z,11.55
2019-03-23T05:30:34.427Z,11.55
2019-03-23T05:31:34.394Z,11.55
2019-03-23T05:32:34.401Z,11.59
2019-03-23T05:33:34.371Z,11.59
2019-03-23T05:34:34.391Z,11.56
2019-03-23T05:35:34.431Z,11.63
2019-03-23T05:36:34.447Z,11.58
2019-03-23T05:37:34.401Z,11.60
2019-03-23T05:38:43.941Z,11.59
2019-03-23T05:39:34.409Z,11.60
2019-03-23T05:40:34.413Z,11.70
2019-03-23T05:41:34.472Z,11.65
2019-03-23T05:42:34.487Z,11.65
2019-03-23T05:43:34.432Z,11.60
2019-03-23T05:44:34.471Z,11.68
2019-03-23T05:45:34.461Z,11.65
2019-03-23T05:46:34.469Z,11.65
2019-03-23T05:47:34.467Z,11.70
2019-03-23T05:48:34.471Z,11.68
2019-03-23T05:49:34.473Z,11.68
2019-03-23T05:50:34.502Z,11.63
2019-03-23T05:51:34.491Z,11.68
2019-03-23T05:52:34.543Z,11.67
2019-03-23T05:53:34.498Z,11.74
2019-03-23T05:54:34.504Z,11.77
2019-03-23T05:55:34.509Z,11.81
2019-03-23T05:56:34.511Z,11.78
2019-03-23T05:57:34.532Z,11.78
2019-03-23T05:58:34.528Z,11.78
2019-03-23T05:59:34.536Z,11.80
2019-03-23T06:00:34.559Z,11.80
2019-03-23T06:01:34.558Z,11.85
2019-03-23T06:02:34.549Z,11.85
2019-03-23T06:03:34.558Z,11.93
2019-03-23T06:04:34.546Z,11.95
2019-03-23T06:05:34.562Z,11.95
2019-03-23T06:06:34.592Z,11.96
2019-03-23T06:07:34.558Z,12.08
2019-03-23T06:08:34.570Z,12.12
2019-03-23T06:09:34.562Z,12.11
2019-03-23T06:10:34.603Z,12.11
2019-03-23T06:11:34.579Z,12.23
2019-03-23T06:12:34.617Z,12.14
2019-03-23T06:13:34.604Z,12.20
2019-03-23T06:14:34.619Z,12.23
2019-03-23T06:15:34.608Z,12.32
2019-03-23T06:16:34.610Z,12.35
2019-03-23T06:17:34.655Z,12.40
2019-03-23T06:18:34.654Z,12.43
2019-03-23T06:19:34.632Z,12.39
2019-03-23T06:20:34.631Z,12.44
2019-03-23T06:21:34.699Z,12.54
2019-03-23T06:22:34.653Z,12.53
2019-03-23T06:23:34.694Z,12.63
2019-03-23T06:24:34.718Z,12.68
2019-03-23T06:25:34.781Z,12.66
2019-03-23T06:26:34.673Z,12.66
2019-03-23T06:27:34.679Z,12.72
2019-03-23T06:28:34.712Z,12.69
2019-03-23T06:29:34.697Z,12.66
2019-03-23T06:30:34.699Z,12.73
2019-03-23T06:31:34.692Z,12.81
2019-03-23T06:32:34.747Z,12.78
2019-03-23T06:33:34.745Z,12.86
2019-03-23T06:34:34.738Z,12.90
2019-03-23T06:35:35.323Z,12.87
2019-03-23T06:36:34.729Z,12.91
2019-03-23T06:37:34.818Z,12.95
2019-03-23T06:38:34.753Z,12.88
2019-03-23T06:39:34.820Z,12.98
2019-03-23T06:40:34.840Z,13.06
2019-03-23T06:41:34.761Z,13.05
2019-03-23T06:42:34.766Z,13.03
2019-03-23T06:43:34.767Z,13.11
2019-03-23T06:44:34.766Z,13.23
2019-03-23T06:45:34.819Z,13.16
2019-03-23T06:46:34.814Z,13.21
2019-03-23T06:47:34.818Z,13.23
2019-03-23T06:48:34.806Z,13.36
2019-03-23T06:49:34.833Z,13.39
2019-03-23T06:50:34.823Z,13.36
2019-03-23T06:51:34.845Z,13.37
2019-03-23T06:52:34.842Z,13.37
2019-03-23T06:53:34.861Z,13.42
2019-03-23T06:54:34.844Z,13.46
2019-03-23T06:55:34.883Z,13.52
2019-03-23T06:56:34.901Z,13.45
2019-03-23T06:57:34.864Z,13.45
2019-03-23T06:58:34.876Z,13.47
2019-03-23T06:59:34.884Z,13.43
2019-03-23T07:00:34.902Z,13.43
2019-03-23T07:01:34.880Z,13.46
2019-03-23T07:02:34.917Z,13.47
2019-03-23T07:03:34.911Z,13.43
2019-03-23T07:04:34.929Z,13.49
2019-03-23T07:05:34.941Z,13.50
2019-03-23T07:06:34.925Z,13.45
2019-03-23T07:07:34.935Z,13.42
2019-03-23T07:08:34.922Z,13.37
2019-03-23T07:09:34.946Z,13.50
2019-03-23T07:10:34.961Z,13.39
2019-03-23T07:11:34.968Z,13.46
2019-03-23T07:12:34.953Z,13.40
2019-03-23T07:13:34.975Z,13.45
2019-03-23T07:14:34.953Z,13.42
2019-03-23T07:15:34.989Z,13.39
2019-03-23T07:16:35.017Z,13.33
2019-03-23T07:17:34.985Z,13.42
2019-03-23T07:18:34.990Z,13.39
2019-03-23T07:19:35.030Z,13.45
2019-03-23T07:20:34.994Z,13.36
2019-03-23T07:21:35.046Z,13.39
2019-03-23T07:22:35.016Z,13.33
2019-03-23T07:23:35.071Z,13.43
2019-03-23T07:24:35.077Z,13.31
2019-03-23T07:25:35.046Z,13.36
2019-03-23T07:26:35.080Z,13.37
2019-03-23T07:27:35.079Z,13.36
2019-03-23T07:28:35.049Z,13.39
2019-03-23T07:29:35.056Z,13.39
2019-03-23T07:30:35.101Z,13.40
2019-03-23T07:31:35.068Z,13.36
2019-03-23T07:32:35.101Z,13.39
2019-03-23T07:33:35.085Z,13.40
2019-03-23T07:34:35.098Z,13.37
2019-03-23T07:35:35.109Z,13.39
2019-03-23T07:36:35.276Z,13.37
2019-03-23T07:37:35.104Z,13.33
2019-03-23T07:38:35.145Z,13.33
2019-03-23T07:39:35.133Z,13.31
2019-03-23T07:40:35.120Z,13.36
2019-03-23T07:41:35.125Z,13.31
2019-03-23T07:42:35.132Z,13.24
2019-03-23T07:43:35.199Z,13.24
2019-03-23T07:44:35.142Z,13.24
2019-03-23T07:45:35.174Z,13.31
2019-03-23T07:46:35.219Z,13.23
2019-03-23T07:47:35.203Z,13.30
2019-03-23T07:48:35.161Z,13.36
2019-03-23T07:49:35.179Z,13.39
2019-03-23T07:50:35.376Z,13.36
2019-03-23T07:51:35.215Z,13.47
2019-03-23T07:52:35.261Z,13.28
2019-03-23T07:53:35.238Z,13.43
2019-03-23T07:54:35.222Z,13.42
2019-03-23T07:55:35.409Z,13.39
2019-03-23T07:56:35.246Z,13.46
2019-03-23T07:57:35.258Z,13.49
2019-03-23T07:58:35.331Z,13.43
2019-03-23T07:59:35.312Z,13.39
2019-03-23T08:00:35.253Z,13.45
2019-03-23T08:01:35.300Z,13.47
2019-03-23T08:02:35.268Z,13.40
2019-03-23T08:03:35.260Z,13.42
2019-03-23T08:04:35.326Z,13.47
2019-03-23T08:05:35.285Z,13.52
2019-03-23T08:06:35.295Z,13.58
2019-03-23T08:07:35.323Z,13.52
2019-03-23T08:08:35.297Z,13.52
2019-03-23T08:09:37.933Z,13.57
2019-03-23T08:10:35.305Z,13.57
2019-03-23T08:11:35.348Z,13.60
2019-03-23T08:12:35.343Z,13.58
2019-03-23T08:13:35.401Z,13.68
2019-03-23T08:14:36.204Z,13.70
2019-03-23T08:15:35.369Z,13.68
2019-03-23T08:16:35.354Z,13.67
2019-03-23T08:17:35.377Z,13.67
2019-03-23T08:18:35.366Z,13.68
2019-03-23T08:19:35.365Z,13.67
2019-03-23T08:20:35.436Z,13.75
2019-03-23T08:21:35.383Z,13.78
2019-03-23T08:22:35.394Z,13.82
2019-03-23T08:23:35.407Z,13.82
2019-03-23T08:24:35.471Z,13.82
2019-03-23T08:25:35.413Z,13.79
2019-03-23T08:26:35.415Z,13.93
2019-03-23T08:27:35.423Z,13.93
2019-03-23T08:28:35.437Z,13.95
2019-03-23T08:29:36.057Z,14.00
2019-03-23T08:30:35.468Z,13.97
2019-03-23T08:31:35.467Z,13.97
2019-03-23T08:32:35.460Z,14.00
2019-03-23T08:33:35.480Z,14.03
2019-03-23T08:34:35.483Z,13.95
2019-03-23T08:35:35.531Z,14.00
2019-03-23T08:36:35.501Z,14.05
2019-03-23T08:37:35.495Z,14.08
2019-03-23T08:38:35.502Z,14.11
2019-03-23T08:39:35.507Z,14.12
2019-03-23T08:40:35.926Z,14.16
2019-03-23T08:41:35.530Z,14.16
2019-03-23T08:42:35.581Z,14.15
2019-03-23T08:43:35.589Z,14.18
2019-03-23T08:44:35.592Z,14.16
2019-03-23T08:45:35.563Z,14.20
2019-03-23T08:46:35.573Z,14.22
2019-03-23T08:47:35.557Z,14.20
2019-03-23T08:48:35.663Z,14.28
2019-03-23T08:49:35.583Z,14.26
2019-03-23T08:50:35.577Z,14.34
2019-03-23T08:51:36.072Z,14.33
2019-03-23T08:52:35.600Z,14.34
2019-03-23T08:53:35.608Z,14.40
2019-03-23T08:54:35.612Z,14.36
2019-03-23T08:55:35.612Z,14.33
2019-03-23T08:56:37.357Z,14.40
2019-03-23T08:57:35.609Z,14.37
2019-03-23T08:58:35.645Z,14.38
2019-03-23T08:59:35.641Z,14.41
2019-03-23T09:00:35.834Z,14.51
2019-03-23T09:01:36.173Z,14.52
2019-03-23T09:02:35.681Z,14.51
2019-03-23T09:03:35.672Z,14.56
2019-03-23T09:04:35.673Z,14.51
2019-03-23T09:05:35.679Z,14.62
2019-03-23T09:06:35.839Z,14.59
2019-03-23T09:07:35.824Z,14.68
2019-03-23T09:08:35.768Z,14.66
2019-03-23T09:09:35.721Z,14.68
2019-03-23T09:10:35.712Z,14.77
2019-03-23T09:11:35.754Z,14.63
2019-03-23T09:12:35.723Z,14.78
2019-03-23T09:13:40.651Z,14.67
2019-03-23T09:14:35.767Z,14.79
2019-03-23T09:15:35.747Z,14.82
2019-03-23T09:16:35.763Z,14.73
2019-03-23T09:17:35.760Z,14.86
2019-03-23T09:18:35.771Z,14.85
2019-03-23T09:19:35.770Z,14.87
2019-03-23T09:20:35.846Z,14.85
2019-03-23T09:21:35.784Z,14.89
2019-03-23T09:22:35.788Z,14.89
2019-03-23T09:23:35.821Z,14.94
2019-03-23T09:24:35.808Z,14.94
2019-03-23T09:25:35.828Z,14.87
2019-03-23T09:26:35.834Z,14.92
2019-03-23T09:27:35.837Z,15.04
2019-03-23T09:28:36.107Z,15.02
2019-03-23T09:29:35.860Z,15.04
2019-03-23T09:30:35.900Z,15.05
2019-03-23T09:31:35.851Z,15.07
2019-03-23T09:32:35.879Z,14.99
2019-03-23T09:33:36.017Z,15.04
2019-03-23T09:34:35.931Z,15.11
2019-03-23T09:35:39.393Z,15.08
2019-03-23T09:36:35.892Z,15.08
2019-03-23T09:37:38.132Z,15.12
2019-03-23T09:38:37.425Z,15.10
2019-03-23T09:39:36.014Z,15.11
2019-03-23T09:40:36.002Z,15.14
2019-03-23T09:41:35.956Z,15.12
2019-03-23T09:42:36.010Z,15.22
2019-03-23T09:43:36.020Z,15.11
2019-03-23T09:44:35.972Z,15.19
2019-03-23T09:45:36.011Z,15.10
2019-03-23T09:46:35.967Z,15.15
2019-03-23T09:47:36.011Z,15.25
2019-03-23T09:48:36.017Z,15.11
2019-03-23T09:49:35.993Z,15.10
2019-03-23T09:50:36.008Z,15.12
2019-03-23T09:51:36.069Z,15.10
2019-03-23T09:52:36.057Z,15.08
2019-03-23T09:53:36.018Z,15.23
2019-03-23T09:54:36.024Z,15.11
2019-03-23T09:55:36.027Z,15.23
2019-03-23T09:56:36.126Z,15.08
2019-03-23T09:57:36.037Z,15.23
2019-03-23T09:58:36.052Z,15.25
2019-03-23T09:59:36.054Z,15.25
2019-03-23T10:00:36.092Z,15.25
2019-03-23T10:01:36.218Z,15.33
2019-03-23T10:02:36.081Z,15.36
2019-03-23T10:03:36.098Z,15.37
2019-03-23T10:04:36.142Z,15.35
2019-03-23T10:05:36.098Z,15.39
2019-03-23T10:06:36.157Z,15.45
2019-03-23T10:07:36.212Z,15.47
2019-03-23T10:08:36.115Z,15.48
2019-03-23T10:09:36.121Z,15.43
2019-03-23T10:10:36.147Z,15.47
2019-03-23T10:11:36.189Z,15.48
2019-03-23T10:12:36.175Z,15.54
2019-03-23T10:13:36.222Z,15.50
2019-03-23T10:14:36.163Z,15.45
2019-03-23T10:15:36.171Z,15.57
2019-03-23T10:16:36.175Z,15.57
2019-03-23T10:17:36.261Z,15.55
2019-03-23T10:18:36.216Z,15.59
2019-03-23T10:19:36.208Z,15.60
2019-03-23T10:20:36.233Z,15.72
2019-03-23T10:21:36.255Z,15.67
2019-03-23T10:22:36.228Z,15.66
2019-03-23T10:23:36.271Z,15.63
2019-03-23T10:24:36.260Z,15.73
2019-03-23T10:25:36.245Z,15.66
2019-03-23T10:26:36.272Z,15.66
2019-03-23T10:27:36.294Z,15.69
2019-03-23T10:28:36.287Z,15.70
2019-03-23T10:29:36.306Z,15.69
2019-03-23T10:30:36.325Z,15.70
2019-03-23T10:31:36.321Z,15.76
2019-03-23T10:32:36.291Z,15.80
2019-03-23T10:33:36.373Z,15.78
2019-03-23T10:34:36.318Z,15.81
2019-03-23T10:35:36.347Z,15.78
2019-03-23T10:36:36.366Z,15.78
2019-03-23T10:37:36.344Z,15.67
2019-03-23T10:38:36.460Z,15.83
2019-03-23T10:39:36.362Z,15.80
2019-03-23T10:40:36.424Z,15.84
2019-03-23T10:41:36.392Z,15.94
2019-03-23T10:42:36.397Z,15.83
2019-03-23T10:43:36.403Z,15.81
2019-03-23T10:44:36.410Z,15.92
2019-03-23T10:45:44.038Z,15.90
2019-03-23T10:46:36.429Z,15.92
2019-03-23T10:47:36.562Z,15.92
2019-03-23T10:48:36.438Z,15.96
2019-03-23T10:49:36.464Z,15.98
2019-03-23T10:50:36.829Z,15.99
2019-03-23T10:51:36.459Z,16.00
2019-03-23T10:52:36.454Z,16.09
2019-03-23T10:53:36.503Z,16.13
2019-03-23T10:54:36.510Z,16.21
2019-03-23T10:55:36.489Z,16.18
2019-03-23T10:56:36.589Z,16.22
2019-03-23T10:57:36.495Z,16.18
2019-03-23T10:58:36.507Z,16.22
2019-03-23T10:59:36.507Z,16.28
2019-03-23T11:00:36.566Z,16.25
2019-03-23T11:01:36.523Z,16.39
2019-03-23T11:02:36.537Z,16.41
2019-03-23T11:03:36.598Z,16.47
2019-03-23T11:04:36.600Z,16.43
2019-03-23T11:05:36.641Z,16.36
2019-03-23T11:06:36.577Z,16.40
2019-03-23T11:07:36.606Z,16.47
2019-03-23T11:08:36.612Z,16.46
2019-03-23T11:09:36.577Z,16.49
2019-03-23T11:10:41.761Z,16.54
2019-03-23T11:11:36.659Z,16.49
2019-03-23T11:12:37.201Z,16.43
2019-03-23T11:13:36.650Z,16.49
2019-03-23T11:14:36.661Z,16.50
2019-03-23T11:15:36.623Z,16.49
2019-03-23T11:16:36.719Z,16.59
2019-03-23T11:17:36.662Z,16.51
2019-03-23T11:18:37.791Z,16.55
2019-03-23T11:19:36.663Z,16.55
2019-03-23T11:20:36.688Z,16.59
2019-03-23T11:21:36.713Z,16.61
2019-03-23T11:22:37.123Z,16.51
2019-03-23T11:23:36.699Z,16.55
2019-03-23T11:24:36.733Z,16.58
2019-03-23T11:25:36.743Z,16.46
2019-03-23T11:26:36.745Z,16.57
2019-03-23T11:27:36.802Z,16.72
2019-03-23T11:28:36.740Z,16.66
2019-03-23T11:29:36.773Z,16.68
2019-03-23T11:30:36.885Z,16.73
2019-03-23T11:31:36.763Z,16.72
2019-03-23T11:32:36.797Z,16.69
2019-03-23T11:33:36.863Z,16.79
2019-03-23T11:34:36.811Z,16.74
2019-03-23T11:35:36.847Z,16.68
2019-03-23T11:36:36.857Z,16.73
2019-03-23T11:37:36.998Z,16.77
2019-03-23T11:38:36.832Z,16.80
2019-03-23T11:39:36.849Z,16.72
2019-03-23T11:40:36.841Z,16.83
2019-03-23T11:41:36.836Z,16.83
2019-03-23T11:42:36.920Z,16.84
2019-03-23T11:43:36.904Z,16.91
2019-03-23T11:44:36.873Z,16.89
2019-03-23T11:45:36.900Z,16.68
2019-03-23T11:46:36.916Z,16.65
2019-03-23T11:47:36.925Z,16.74
2019-03-23T11:48:37.287Z,16.74
2019-03-23T11:49:37.003Z,16.73
2019-03-23T11:50:36.955Z,16.73
2019-03-23T11:51:36.975Z,16.74
2019-03-23T11:52:37.013Z,16.76
2019-03-23T11:53:37.018Z,16.72
2019-03-23T11:54:37.024Z,16.76
2019-03-23T11:55:36.997Z,16.73
2019-03-23T11:56:37.038Z,16.74
2019-03-23T11:57:36.973Z,16.72
2019-03-23T11:58:37.036Z,16.66
2019-03-23T11:59:37.024Z,16.61
2019-03-23T12:00:37.032Z,16.64
2019-03-23T12:01:37.070Z,16.68
2019-03-23T12:02:37.013Z,16.68
2019-03-23T12:03:37.295Z,16.73
2019-03-23T12:04:37.210Z,16.62
2019-03-23T12:05:37.082Z,16.51
2019-03-23T12:06:37.067Z,16.58
2019-03-23T12:07:37.087Z,16.51
2019-03-23T12:08:37.085Z,16.50
2019-03-23T12:09:37.103Z,16.51
2019-03-23T12:10:37.132Z,16.54
2019-03-23T12:11:37.254Z,16.54
2019-03-23T12:12:37.213Z,16.54
2019-03-23T12:13:37.144Z,16.55
2019-03-23T12:14:37.134Z,16.55
2019-03-23T12:15:37.152Z,16.47
2019-03-23T12:16:37.167Z,16.40
2019-03-23T12:17:37.176Z,16.50
2019-03-23T12:18:37.277Z,16.47
2019-03-23T12:19:37.203Z,16.47
2019-03-23T12:20:37.201Z,16.54
2019-03-23T12:21:37.266Z,16.32
2019-03-23T12:22:37.261Z,16.44
2019-03-23T12:23:37.230Z,16.34
2019-03-23T12:24:37.197Z,16.26
2019-03-23T12:25:37.252Z,16.21
2019-03-23T12:26:37.294Z,16.10
2019-03-23T12:27:37.454Z,15.98
2019-03-23T12:28:37.303Z,16.00
2019-03-23T12:29:37.295Z,15.84
2019-03-23T12:30:37.247Z,15.85
2019-03-23T12:31:37.281Z,15.81
2019-03-23T12:32:37.271Z,15.72
2019-03-23T12:33:37.324Z,15.65
2019-03-23T12:34:37.418Z,15.45
2019-03-23T12:35:37.292Z,15.44
2019-03-23T12:36:37.343Z,15.48
2019-03-23T12:37:38.091Z,15.30
2019-03-23T12:38:37.389Z,15.35
2019-03-23T12:39:37.361Z,15.23
2019-03-23T12:40:37.326Z,15.12
2019-03-23T12:41:37.383Z,15.14
2019-03-23T12:42:37.354Z,15.10
2019-03-23T12:43:38.076Z,15.05
2019-03-23T12:44:37.589Z,15.05
2019-03-23T12:45:38.896Z,15.00
2019-03-23T12:46:47.671Z,14.96
2019-03-23T12:47:37.431Z,14.86
2019-03-23T12:48:37.430Z,14.81
2019-03-23T12:49:37.446Z,14.74
2019-03-23T12:50:37.414Z,14.73
2019-03-23T12:51:37.620Z,14.70
2019-03-23T12:52:37.507Z,14.63